Terminal Aerodrome Forecast
Issued by NWS

Home | Current Version | Previous Version | Text Only | Print | Product List | Glossary On
Versions: 1 2 3 4 5 6 7 8 9 10 11 12 13 14 15 16 17 18 19 20 21 22 23 24 25 26 27 28 29 30 31
000
FTUS43 KLOT 170900 AAA
TAFDPA
TAF AMD
KDPA 170907Z 1709/1806 17010G16KT P6SM BKN050 WS020/20040KT
     FM171400 23012G18KT P6SM SCT040 SCT180
     FM180000 29007KT P6SM BKN040 BKN180=

USA.gov is the U.S. government's official web portal to all federal, state and local government web resources and services.